Time;durP1;ratioP1;P1;durP2;ratioP2;P2;SDS_P1;SDS_P2;PMS_P1;PMS_P2;Temp;Humidity;BMP_temperature;BMP_pressure;BME280_temperature;BME280_humidity;BME280_pressure;Samples;Min_cycle;Max_cycle;Signal;HPM_P1;HPM_P2
2022/03/15 00:02:16;;;;;;;5.15;1.50;;;;;;;-148.56;100.00;61375.16;5049018;28;20210;-29
2022/03/15 00:04:41;;;;;;;2.88;1.50;;;;;;;-148.56;100.00;61375.16;5029570;28;20786;-27
2022/03/15 00:07:10;;;;;;;1.67;1.30;;;;;;;-148.56;100.00;61375.16;5049266;28;20029;-28
2022/03/15 00:09:36;;;;;;;1.45;1.17;;;;;;;-148.56;100.00;61375.16;5048456;28;20036;-26
2022/03/15 00:12:01;;;;;;;4.47;1.60;;;;;;;-148.56;100.00;61375.16;5045599;28;20765;-25
2022/03/15 00:14:27;;;;;;;2.55;1.27;;;;;;;-148.56;100.00;61375.16;5049611;28;20029;-27
2022/03/15 00:16:54;;;;;;;1.77;1.27;;;;;;;-148.56;100.00;61375.16;5044746;28;20273;-27
2022/03/15 00:19:19;;;;;;;3.38;1.42;;;;;;;-148.56;100.00;61375.16;5046381;28;20564;-31
2022/03/15 00:21:44;;;;;;;2.30;1.50;;;;;;;-148.56;100.00;61375.16;5045616;28;20036;-30
2022/03/15 00:24:10;;;;;;;2.95;1.20;;;;;;;-148.56;100.00;61375.16;5048211;28;20033;-27
2022/03/15 00:26:35;;;;;;;1.60;1.27;;;;;;;-148.56;100.00;61375.16;5046279;28;20463;-29
2022/03/15 00:29:01;;;;;;;3.33;1.40;;;;;;;-148.56;100.00;61375.16;5046944;28;20706;-27
2022/03/15 00:31:26;;;;;;;2.65;1.25;;;;;;;-148.56;100.00;61375.16;5048846;28;20028;-30
2022/03/15 00:33:52;;;;;;;2.53;1.42;;;;;;;-148.56;100.00;61375.16;5048945;28;20058;-29
2022/03/15 00:36:17;;;;;;;1.67;1.30;;;;;;;-148.56;100.00;61375.16;5047209;28;20025;-26
2022/03/15 00:38:43;;;;;;;2.65;1.23;;;;;;;-148.56;100.00;61375.16;5046626;28;20726;-28
2022/03/15 00:41:09;;;;;;;1.52;1.20;;;;;;;-148.56;100.00;61375.16;5048227;28;20036;-30
2022/03/15 00:43:34;;;;;;;1.50;1.20;;;;;;;-148.56;100.00;61375.16;5050683;28;20658;-27
2022/03/15 00:46:00;;;;;;;1.80;1.23;;;;;;;-148.56;100.00;61375.16;5048026;28;20507;-27
2022/03/15 00:48:26;;;;;;;2.35;1.50;;;;;;;-148.56;100.00;61375.16;5047720;28;20036;-29
2022/03/15 00:50:51;;;;;;;3.25;1.50;;;;;;;-148.56;100.00;61375.16;5048257;28;20036;-27
2022/03/15 00:53:17;;;;;;;2.13;1.30;;;;;;;-148.56;100.00;61375.16;5052582;28;20032;-30
2022/03/15 00:55:42;;;;;;;1.85;1.10;;;;;;;-148.56;100.00;61375.16;5055979;28;20036;-29
2022/03/15 00:58:08;;;;;;;3.58;1.20;;;;;;;-148.56;100.00;61375.16;5038522;28;20047;-28
2022/03/15 01:00:35;;;;;;;1.38;1.23;;;;;;;-148.56;100.00;61375.16;5035428;28;20619;-29
2022/03/15 01:03:00;;;;;;;1.42;1.00;;;;;;;-148.56;100.00;61375.16;5050132;28;20033;-31
2022/03/15 01:05:25;;;;;;;1.80;1.20;;;;;;;-148.56;100.00;61375.16;5047910;28;20785;-29
2022/03/15 01:07:51;;;;;;;2.08;1.25;;;;;;;-148.56;100.00;61375.16;5054900;28;20541;-28
2022/03/15 01:10:16;;;;;;;1.90;1.00;;;;;;;-148.56;100.00;61375.16;5057176;28;20024;-30
2022/03/15 01:12:42;;;;;;;2.03;1.20;;;;;;;-148.56;100.00;61375.16;5055652;28;20016;-30
2022/03/15 01:15:08;;;;;;;2.60;1.30;;;;;;;-148.56;100.00;61375.16;5054420;28;20039;-31
2022/03/15 01:17:34;;;;;;;1.33;1.10;;;;;;;-148.56;100.00;61375.16;5056944;28;20028;-30
2022/03/15 01:20:00;;;;;;;1.23;1.00;;;;;;;-148.56;100.00;61375.16;5050725;28;20775;-27
2022/03/15 01:22:26;;;;;;;1.48;1.08;;;;;;;-148.56;100.00;61375.16;5055000;28;20043;-29
2022/03/15 01:24:51;;;;;;;1.55;1.13;;;;;;;-148.56;100.00;61375.16;5054452;28;20505;-30
2022/03/15 01:27:19;;;;;;;1.05;0.80;;;;;;;-148.56;100.00;61375.16;5047005;28;20036;-30
2022/03/15 01:29:44;;;;;;;2.53;1.10;;;;;;;-148.56;100.00;61375.16;5052096;28;20048;-29
2022/03/15 01:32:10;;;;;;;1.90;1.20;;;;;;;-148.56;100.00;61375.16;5056378;28;20027;-26
2022/03/15 01:34:35;;;;;;;2.80;1.10;;;;;;;-148.56;100.00;61375.16;5053452;28;20029;-29
2022/03/15 01:37:01;;;;;;;1.98;1.10;;;;;;;-148.56;100.00;61375.16;5058986;28;20031;-29
2022/03/15 01:39:26;;;;;;;1.30;1.10;;;;;;;-148.56;100.00;61375.16;5049341;28;20556;-30
2022/03/15 01:41:52;;;;;;;1.98;1.05;;;;;;;-148.56;100.00;61375.16;5049049;28;20481;-27
2022/03/15 01:44:21;;;;;;;1.98;1.08;;;;;;;-148.56;100.00;61375.16;5051552;28;20025;-29
2022/03/15 01:46:47;;;;;;;1.35;1.10;;;;;;;-148.56;100.00;61375.16;5051451;28;20524;-24
2022/03/15 01:49:12;;;;;;;2.45;1.25;;;;;;;-148.56;100.00;61375.16;5053067;28;20032;-27
2022/03/15 01:51:40;;;;;;;1.92;1.15;;;;;;;-148.56;100.00;61375.16;5052200;28;20086;-31
2022/03/15 01:54:09;;;;;;;1.02;0.90;;;;;;;-148.56;100.00;61375.16;5051857;28;20161;-31
2022/03/15 01:56:35;;;;;;;2.03;1.00;;;;;;;-148.56;100.00;61375.16;5052034;28;20056;-26
2022/03/15 01:59:00;;;;;;;1.58;0.90;;;;;;;-148.56;100.00;61375.16;5052290;28;20107;-29
2022/03/15 02:01:26;;;;;;;1.90;1.10;;;;;;;-148.56;100.00;61375.16;5052510;28;20764;-28
2022/03/15 02:03:51;;;;;;;3.20;1.38;;;;;;;-148.56;100.00;61375.16;5050341;28;20054;-26
2022/03/15 02:06:17;;;;;;;1.55;1.00;;;;;;;-148.56;100.00;61375.16;5053933;28;20029;-27
2022/03/15 02:08:42;;;;;;;1.67;1.08;;;;;;;-148.56;100.00;61375.16;5052041;28;20039;-27
2022/03/15 02:11:08;;;;;;;1.73;1.13;;;;;;;-148.56;100.00;61375.16;5052233;28;20028;-28
2022/03/15 02:13:34;;;;;;;2.33;1.00;;;;;;;-148.56;100.00;61375.16;5051329;28;20043;-30
2022/03/15 02:15:59;;;;;;;1.05;0.93;;;;;;;-148.56;100.00;61375.16;5053107;28;20028;-28
2022/03/15 02:18:27;;;;;;;1.67;0.95;;;;;;;-148.56;100.00;61375.16;5051402;28;20545;-28
2022/03/15 02:20:54;;;;;;;1.65;1.17;;;;;;;-148.56;100.00;61375.16;5054246;28;20056;-32
2022/03/15 02:23:19;;;;;;;1.48;1.00;;;;;;;-148.56;100.00;61375.16;5056587;28;20040;-30
2022/03/15 02:25:45;;;;;;;0.98;0.70;;;;;;;-148.56;100.00;61375.16;5052617;28;20043;-30
2022/03/15 02:28:10;;;;;;;0.80;0.70;;;;;;;-148.56;100.00;61375.16;5051611;28;20029;-28
2022/03/15 02:30:36;;;;;;;1.85;0.98;;;;;;;-148.56;100.00;61375.16;5052813;28;20090;-27
2022/03/15 02:33:01;;;;;;;1.67;1.00;;;;;;;-148.56;100.00;61375.16;5051097;28;22084;-31
2022/03/15 02:35:26;;;;;;;1.02;0.88;;;;;;;-148.56;100.00;61375.16;5051278;28;20028;-29
2022/03/15 02:37:52;;;;;;;1.55;0.93;;;;;;;-148.56;100.00;61375.16;5052550;28;20108;-27
2022/03/15 02:40:17;;;;;;;1.10;0.82;;;;;;;-148.56;100.00;61375.16;5058553;28;20024;-29
2022/03/15 02:42:43;;;;;;;0.85;0.82;;;;;;;-148.56;100.00;61375.16;5059000;28;20074;-25
2022/03/15 02:45:10;;;;;;;1.40;0.80;;;;;;;-148.56;100.00;61375.16;5054521;28;20028;-26
2022/03/15 02:47:36;;;;;;;1.15;0.82;;;;;;;-148.56;100.00;61375.16;5055127;28;20036;-26
2022/03/15 02:50:01;;;;;;;1.38;1.10;;;;;;;-148.56;100.00;61375.16;5056016;28;20016;-28
2022/03/15 02:52:29;;;;;;;1.50;1.05;;;;;;;-148.56;100.00;61375.16;5054891;28;20020;-30
2022/03/15 02:54:55;;;;;;;0.75;0.70;;;;;;;-148.56;100.00;61375.16;5056716;28;20032;-29
2022/03/15 02:57:23;;;;;;;1.60;0.85;;;;;;;-148.56;100.00;61375.16;5061011;28;20652;-31
2022/03/15 02:59:48;;;;;;;1.80;0.88;;;;;;;-148.56;100.00;61375.16;5051418;28;20036;-28
2022/03/15 03:02:14;;;;;;;1.30;1.10;;;;;;;-148.56;100.00;61375.16;5056617;28;20037;-25
2022/03/15 03:04:39;;;;;;;3.35;1.10;;;;;;;-148.56;100.00;61375.16;5056978;28;20577;-25
2022/03/15 03:07:06;;;;;;;1.67;1.00;;;;;;;-148.56;100.00;61375.16;5058638;28;20081;-28
2022/03/15 03:09:31;;;;;;;1.45;1.00;;;;;;;-148.56;100.00;61375.16;5061232;28;20574;-29
2022/03/15 03:11:57;;;;;;;1.35;0.90;;;;;;;-148.56;100.00;61375.16;5058353;28;20035;-27
2022/03/15 03:14:26;;;;;;;1.42;1.00;;;;;;;-148.56;100.00;61375.16;5059850;28;20035;-32
2022/03/15 03:16:52;;;;;;;1.13;0.88;;;;;;;-148.56;100.00;61375.16;5060022;28;20052;-32
2022/03/15 03:19:18;;;;;;;0.90;0.82;;;;;;;-148.56;100.00;61375.16;5058056;28;20068;-29
2022/03/15 03:21:44;;;;;;;1.67;0.85;;;;;;;-148.56;100.00;61375.16;5059985;28;20020;-31
2022/03/15 03:24:09;;;;;;;1.00;0.90;;;;;;;-148.56;100.00;61375.16;5059602;28;20032;-29
2022/03/15 03:26:37;;;;;;;1.73;0.90;;;;;;;-148.56;100.00;61375.16;5058081;28;20028;-29
2022/03/15 03:29:09;;;;;;;0.82;0.70;;;;;;;-148.56;100.00;61375.16;5059476;28;20550;-29
2022/03/15 03:31:35;;;;;;;1.95;0.85;;;;;;;-148.56;100.00;61375.16;5061318;28;20044;-26
2022/03/15 03:34:01;;;;;;;1.17;0.98;;;;;;;-148.56;100.00;61375.16;5060475;28;20040;-28
2022/03/15 03:36:26;;;;;;;0.85;0.80;;;;;;;-148.56;100.00;61375.16;5055658;28;20123;-29
2022/03/15 03:38:52;;;;;;;0.80;0.70;;;;;;;-148.56;100.00;61375.16;5054538;28;20024;-29
2022/03/15 03:41:17;;;;;;;1.17;0.68;;;;;;;-148.56;100.00;61375.16;5052168;28;21651;-40
2022/03/15 03:43:43;;;;;;;1.10;0.93;;;;;;;-148.56;100.00;61375.16;5053974;28;20032;-28
2022/03/15 03:46:08;;;;;;;2.35;1.10;;;;;;;-148.56;100.00;61375.16;5058627;28;20027;-31
2022/03/15 03:48:34;;;;;;;2.10;0.90;;;;;;;-148.56;100.00;61375.16;5056850;28;20032;-29
2022/03/15 03:51:01;;;;;;;2.72;0.90;;;;;;;-148.56;100.00;61375.16;5054312;28;20081;-26
2022/03/15 03:53:26;;;;;;;2.08;0.70;;;;;;;-148.56;100.00;61375.16;5053376;28;20031;-29
2022/03/15 03:55:52;;;;;;;0.77;0.70;;;;;;;-148.56;100.00;61375.16;5057109;28;20398;-30
2022/03/15 03:58:17;;;;;;;1.05;0.73;;;;;;;-148.56;100.00;61375.16;5052034;28;20055;-27
2022/03/15 04:00:43;;;;;;;0.98;0.75;;;;;;;-148.56;100.00;61375.16;5054308;28;20033;-29
2022/03/15 04:03:09;;;;;;;1.50;0.80;;;;;;;-148.56;100.00;61375.16;5049119;28;20161;-30
2022/03/15 04:05:40;;;;;;;1.67;0.75;;;;;;;-148.56;100.00;61375.16;5050008;28;20093;-27
2022/03/15 04:08:05;;;;;;;2.55;1.10;;;;;;;-148.56;100.00;61375.16;5050606;28;20036;-30
2022/03/15 04:10:31;;;;;;;1.63;0.88;;;;;;;-148.56;100.00;61375.16;5058772;28;20102;-28
2022/03/15 04:12:56;;;;;;;0.90;0.70;;;;;;;-148.56;100.00;61375.16;5059791;28;20048;-29
2022/03/15 04:15:22;;;;;;;0.98;0.70;;;;;;;-148.56;100.00;61375.16;5057500;28;20503;-27
2022/03/15 04:17:48;;;;;;;1.00;0.90;;;;;;;-148.56;100.00;61375.16;5057350;28;20027;-27
2022/03/15 04:20:14;;;;;;;1.50;0.88;;;;;;;-148.56;100.00;61375.16;5052254;28;20021;-29
2022/03/15 04:22:39;;;;;;;1.55;0.80;;;;;;;-148.56;100.00;61375.16;5055194;28;22350;-28
2022/03/15 04:25:05;;;;;;;1.20;1.00;;;;;;;-148.56;100.00;61375.16;5050560;28;20028;-27
2022/03/15 04:27:31;;;;;;;1.90;0.80;;;;;;;-148.56;100.00;61375.16;5054212;28;20024;-29
2022/03/15 04:29:57;;;;;;;1.08;0.80;;;;;;;-148.56;100.00;61375.16;5050891;28;20055;-25
2022/03/15 04:32:22;;;;;;;1.42;0.80;;;;;;;-148.56;100.00;61375.16;5053442;28;20044;-26
2022/03/15 04:34:48;;;;;;;5.22;0.90;;;;;;;-148.56;100.00;61375.16;5050173;28;20029;-30
2022/03/15 04:37:14;;;;;;;1.27;0.70;;;;;;;-148.56;100.00;61375.16;5053433;28;20043;-28
2022/03/15 04:39:39;;;;;;;1.40;0.88;;;;;;;-148.56;100.00;61375.16;5057420;28;20024;-28
2022/03/15 04:42:05;;;;;;;1.40;0.80;;;;;;;-148.56;100.00;61375.16;5055266;28;20032;-28
2022/03/15 04:44:31;;;;;;;0.82;0.70;;;;;;;-148.56;100.00;61375.16;5052119;28;20025;-27
2022/03/15 04:46:56;;;;;;;1.42;0.98;;;;;;;-148.56;100.00;61375.16;5048515;28;20059;-27
2022/03/15 04:49:21;;;;;;;1.15;0.60;;;;;;;-148.56;100.00;61375.16;5060430;28;20371;-29
2022/03/15 04:51:48;;;;;;;1.55;0.60;;;;;;;-148.56;100.00;61375.16;5049344;28;20478;-29
2022/03/15 04:54:13;;;;;;;1.70;1.00;;;;;;;-148.56;100.00;61375.16;5049805;28;20032;-27
2022/03/15 04:56:39;;;;;;;0.88;0.60;;;;;;;-148.56;100.00;61375.16;5050267;28;20076;-28
2022/03/15 04:59:04;;;;;;;0.85;0.80;;;;;;;-148.56;100.00;61375.16;5048014;28;20024;-27
2022/03/15 05:01:31;;;;;;;0.85;0.80;;;;;;;-148.56;100.00;61375.16;5047867;28;20115;-29
2022/03/15 05:03:56;;;;;;;0.82;0.80;;;;;;;-148.56;100.00;61375.16;5054047;28;20032;-29
2022/03/15 05:06:22;;;;;;;1.17;0.60;;;;;;;-148.56;100.00;61375.16;5053486;28;20024;-29
2022/03/15 05:08:48;;;;;;;0.70;0.70;;;;;;;-148.56;100.00;61375.16;5057680;28;20028;-28
2022/03/15 05:11:14;;;;;;;0.85;0.75;;;;;;;-148.56;100.00;61375.16;5058630;28;20025;-28
2022/03/15 05:13:46;;;;;;;1.45;0.82;;;;;;;-148.56;100.00;61375.16;5054449;28;20561;-29
2022/03/15 05:16:21;;;;;;;1.00;0.90;;;;;;;-148.56;100.00;61375.16;5054501;28;20040;-28
2022/03/15 05:18:52;;;;;;;1.70;0.63;;;;;;;-148.56;100.00;61375.16;5054412;28;20017;-28
2022/03/15 05:21:18;;;;;;;0.75;0.70;;;;;;;-148.56;100.00;61375.16;5056172;28;20043;-29
2022/03/15 05:23:44;;;;;;;1.60;0.50;;;;;;;-148.56;100.00;61375.16;5054720;28;20032;-29
2022/03/15 05:26:10;;;;;;;1.35;0.60;;;;;;;-148.56;100.00;61375.16;5055599;28;20078;-30
2022/03/15 05:28:35;;;;;;;1.77;0.68;;;;;;;-148.56;100.00;61375.16;5056741;28;20032;-29
2022/03/15 05:31:01;;;;;;;1.92;0.65;;;;;;;-148.56;100.00;61375.16;5053551;28;20036;-27
2022/03/15 05:33:28;;;;;;;0.85;0.60;;;;;;;-148.56;100.00;61375.16;5053497;28;20037;-29
2022/03/15 05:35:54;;;;;;;1.10;0.80;;;;;;;-148.56;100.00;61375.16;5055137;28;20138;-25
2022/03/15 05:38:19;;;;;;;1.23;0.63;;;;;;;-148.56;100.00;61375.16;5054257;28;20028;-26
2022/03/15 05:40:44;;;;;;;1.33;0.82;;;;;;;-148.56;100.00;61375.16;5054519;28;20048;-26
2022/03/15 05:43:10;;;;;;;1.70;0.77;;;;;;;-148.56;100.00;61375.16;5054504;28;20109;-30
2022/03/15 05:45:36;;;;;;;0.60;0.60;;;;;;;-148.56;100.00;61375.16;5049680;28;20032;-28
2022/03/15 05:48:01;;;;;;;1.50;0.88;;;;;;;-148.56;100.00;61375.16;5050901;28;20079;-32
2022/03/15 05:50:27;;;;;;;0.60;0.60;;;;;;;-148.56;100.00;61375.16;5054595;28;20028;-29
2022/03/15 05:52:52;;;;;;;1.70;0.70;;;;;;;-148.56;100.00;61375.16;5057188;28;20078;-29
2022/03/15 05:55:17;;;;;;;1.00;0.60;;;;;;;-148.56;100.00;61375.16;5051032;28;20082;-31
2022/03/15 05:57:43;;;;;;;4.32;2.25;;;;;;;-148.56;100.00;61375.16;5051033;28;20032;-29
2022/03/15 06:00:10;;;;;;;11.98;2.30;;;;;;;-148.56;100.00;61375.16;5049985;28;20033;-30
2022/03/15 06:02:35;;;;;;;3.55;1.67;;;;;;;-148.56;100.00;61375.16;5050536;28;20033;-31
2022/03/15 06:05:03;;;;;;;2.20;1.27;;;;;;;-148.56;100.00;61375.16;5048186;28;20520;-30
2022/03/15 06:07:28;;;;;;;3.85;1.35;;;;;;;-148.56;100.00;61375.16;5053810;28;20754;-32
2022/03/15 06:09:53;;;;;;;1.35;1.00;;;;;;;-148.56;100.00;61375.16;5049753;28;20025;-30
2022/03/15 06:12:20;;;;;;;1.35;0.93;;;;;;;-148.56;100.00;61375.16;5050406;28;20898;-28
2022/03/15 06:14:46;;;;;;;1.17;0.82;;;;;;;-148.56;100.00;61375.16;5058670;28;20040;-26
2022/03/15 06:17:12;;;;;;;1.65;1.10;;;;;;;-148.56;100.00;61375.16;5056878;28;20043;-29
2022/03/15 06:19:37;;;;;;;1.67;0.95;;;;;;;-148.56;100.00;61375.16;5055209;28;20033;-31
2022/03/15 06:22:03;;;;;;;2.13;1.00;;;;;;;-148.56;100.00;61375.16;5058169;28;20032;-32
2022/03/15 06:24:29;;;;;;;1.98;0.95;;;;;;;-148.56;100.00;61375.16;5059238;28;20032;-29
2022/03/15 06:26:54;;;;;;;2.90;0.82;;;;;;;-148.56;100.00;61375.16;5052587;28;20032;-29
2022/03/15 06:29:20;;;;;;;1.63;0.82;;;;;;;-148.56;100.00;61375.16;5056576;28;20025;-26
2022/03/15 06:31:45;;;;;;;1.30;0.90;;;;;;;-148.56;100.00;61375.16;5055190;28;20066;-30
2022/03/15 06:34:11;;;;;;;3.72;1.00;;;;;;;-148.56;100.00;61375.16;5059651;28;20489;-29
2022/03/15 06:36:36;;;;;;;1.63;1.10;;;;;;;-148.56;100.00;61375.16;5033949;28;20033;-28
2022/03/15 06:39:05;;;;;;;2.17;0.98;;;;;;;-148.56;100.00;61375.16;5039162;28;20657;-28
2022/03/15 06:41:31;;;;;;;1.23;0.90;;;;;;;-148.56;100.00;61375.16;5041291;28;20805;-27
2022/03/15 06:43:57;;;;;;;0.90;0.82;;;;;;;-148.56;100.00;61375.16;5039775;28;20067;-29
2022/03/15 06:46:23;;;;;;;1.55;0.98;;;;;;;-148.56;100.00;61375.16;5040363;28;20020;-25
2022/03/15 06:48:49;;;;;;;1.35;1.00;;;;;;;-148.56;100.00;61375.16;5039211;28;20024;-28
2022/03/15 06:51:15;;;;;;;1.17;0.95;;;;;;;-148.56;100.00;61375.16;5037414;28;20223;-27
2022/03/15 06:53:41;;;;;;;1.65;0.90;;;;;;;-148.56;100.00;61375.16;5044554;28;20104;-31
2022/03/15 06:56:06;;;;;;;1.52;0.90;;;;;;;-148.56;100.00;61375.16;5057567;28;20047;-29
2022/03/15 06:58:32;;;;;;;1.63;0.90;;;;;;;-148.56;100.00;61375.16;5058392;28;20039;-32
2022/03/15 07:00:57;;;;;;;2.50;0.95;;;;;;;-148.56;100.00;61375.16;5057416;28;20035;-28
2022/03/15 07:03:23;;;;;;;4.22;0.98;;;;;;;-148.56;100.00;61375.16;5058966;28;20028;-31
2022/03/15 07:05:48;;;;;;;3.42;0.88;;;;;;;-148.56;100.00;61375.16;5058417;28;20035;-27
2022/03/15 07:08:13;;;;;;;2.17;0.90;;;;;;;-148.56;100.00;61375.16;5058991;28;20811;-29
2022/03/15 07:10:39;;;;;;;1.95;0.85;;;;;;;-148.56;100.00;61375.16;5061106;28;20178;-29
2022/03/15 07:13:04;;;;;;;1.52;0.80;;;;;;;-148.56;100.00;61375.16;5057631;28;20039;-30
2022/03/15 07:15:30;;;;;;;2.60;1.17;;;;;;;-148.56;100.00;61375.16;5055381;28;20028;-27
2022/03/15 07:17:56;;;;;;;6.30;1.60;;;;;;;-148.56;100.00;61375.16;5055324;28;20027;-29
2022/03/15 07:20:22;;;;;;;6.68;1.83;;;;;;;-148.56;100.00;61375.16;5059006;28;20043;-29
2022/03/15 07:22:48;;;;;;;9.65;2.20;;;;;;;-148.56;100.00;61375.16;5048748;28;20024;-29
2022/03/15 07:25:13;;;;;;;6.53;2.05;;;;;;;-148.56;100.00;61375.16;5046327;28;20063;-29
2022/03/15 07:27:39;;;;;;;6.85;1.98;;;;;;;-148.56;100.00;61375.16;5039176;28;20037;-31
2022/03/15 07:30:05;;;;;;;7.47;1.90;;;;;;;-148.56;100.00;61375.16;5046253;28;20035;-31
2022/03/15 07:32:30;;;;;;;6.72;2.25;;;;;;;-148.56;100.00;61375.16;5052518;28;20079;-30
2022/03/15 07:34:58;;;;;;;6.57;2.10;;;;;;;-148.56;100.00;61375.16;5054855;28;20040;-33
2022/03/15 07:37:24;;;;;;;5.82;2.65;;;;;;;-148.56;100.00;61375.16;5049123;28;20491;-34
2022/03/15 07:39:49;;;;;;;9.70;2.15;;;;;;;-148.56;100.00;61375.16;5048770;28;20059;-31
2022/03/15 07:42:15;;;;;;;9.90;2.33;;;;;;;-148.56;100.00;61375.16;5044575;28;20032;-33
2022/03/15 07:44:44;;;;;;;12.77;2.58;;;;;;;-148.56;100.00;61375.16;5050211;28;20028;-32
2022/03/15 07:47:10;;;;;;;8.90;2.42;;;;;;;-148.56;100.00;61375.16;5045731;28;20047;-30
2022/03/15 07:49:36;;;;;;;11.68;2.50;;;;;;;-148.56;100.00;61375.16;5044144;28;20141;-31
2022/03/15 07:52:01;;;;;;;6.88;2.83;;;;;;;-148.56;100.00;61375.16;5045488;28;20043;-30
2022/03/15 07:54:27;;;;;;;7.30;2.30;;;;;;;-148.56;100.00;61375.16;5029942;28;20028;-34
2022/03/15 07:56:52;;;;;;;7.70;2.40;;;;;;;-148.56;100.00;61375.16;5049683;28;20020;-34
2022/03/15 07:59:18;;;;;;;5.65;2.55;;;;;;;-148.56;100.00;61375.16;5048818;28;20481;-31
2022/03/15 08:01:44;;;;;;;7.95;2.20;;;;;;;-148.56;100.00;61375.16;5049620;28;20387;-29
2022/03/15 08:04:09;;;;;;;7.65;2.35;;;;;;;-148.56;100.00;61375.16;5049504;28;20066;-28
2022/03/15 08:06:35;;;;;;;7.93;2.13;;;;;;;-148.56;100.00;61375.16;5049732;28;20051;-32
2022/03/15 08:09:01;;;;;;;8.38;2.25;;;;;;;-148.56;100.00;61375.16;5035377;28;20028;-29
2022/03/15 08:11:27;;;;;;;10.85;2.45;;;;;;;-148.56;100.00;61375.16;5047272;28;20883;-29
2022/03/15 08:13:53;;;;;;;8.15;2.40;;;;;;;-148.56;100.00;61375.16;5047108;28;20039;-29
2022/03/15 08:16:19;;;;;;;14.82;3.83;;;;;;;-148.56;100.00;61375.16;5022352;28;20035;-31
2022/03/15 08:18:44;;;;;;;7.55;2.70;;;;;;;-148.56;100.00;61375.16;5011714;28;20021;-31
2022/03/15 08:21:10;;;;;;;7.43;2.60;;;;;;;-148.56;100.00;61375.16;5040115;28;20062;-32
2022/03/15 08:23:36;;;;;;;7.93;2.80;;;;;;;-148.56;100.00;61375.16;5051334;28;20036;-28
2022/03/15 08:26:01;;;;;;;6.20;2.22;;;;;;;-148.56;100.00;61375.16;5048859;28;20039;-29
2022/03/15 08:28:27;;;;;;;4.25;2.25;;;;;;;-148.56;100.00;61375.16;5022430;28;20553;-29
2022/03/15 08:30:53;;;;;;;6.43;2.15;;;;;;;-148.56;100.00;61375.16;5013711;28;20114;-30
2022/03/15 08:33:18;;;;;;;9.68;2.60;;;;;;;-148.56;100.00;61375.16;5004515;28;20036;-29
2022/03/15 08:35:44;;;;;;;9.32;2.15;;;;;;;-148.56;100.00;61375.16;5008661;28;20216;-31
2022/03/15 08:38:11;;;;;;;8.95;2.05;;;;;;;-148.56;100.00;61375.16;5013752;28;21266;-31
2022/03/15 08:40:36;;;;;;;5.70;2.25;;;;;;;-148.56;100.00;61375.16;5010272;28;20033;-26
2022/03/15 08:43:02;;;;;;;5.95;2.20;;;;;;;-148.56;100.00;61375.16;5030195;28;20036;-28
2022/03/15 08:45:27;;;;;;;4.28;1.83;;;;;;;-148.56;100.00;61375.16;5047444;28;20020;-29
2022/03/15 08:47:53;;;;;;;5.55;2.08;;;;;;;-148.56;100.00;61375.16;5050333;28;20922;-31
2022/03/15 08:50:19;;;;;;;5.47;2.22;;;;;;;-148.56;100.00;61375.16;5025047;28;22077;-30
2022/03/15 08:52:45;;;;;;;5.75;2.30;;;;;;;-148.56;100.00;61375.16;5049513;28;20036;-31
2022/03/15 08:55:10;;;;;;;5.20;1.90;;;;;;;-148.56;100.00;61375.16;5031760;28;20025;-30
2022/03/15 08:57:36;;;;;;;3.97;1.85;;;;;;;-148.56;100.00;61375.16;5046161;28;20036;-30
2022/03/15 09:00:02;;;;;;;7.55;2.13;;;;;;;-148.56;100.00;61375.16;5048461;28;20482;-29
2022/03/15 09:02:28;;;;;;;5.03;2.08;;;;;;;-148.56;100.00;61375.16;5048792;28;20028;-26
2022/03/15 09:04:53;;;;;;;3.60;1.63;;;;;;;-148.56;100.00;61375.16;5045509;28;20087;-28
2022/03/15 09:07:19;;;;;;;5.60;1.90;;;;;;;-148.56;100.00;61375.16;5049444;28;20029;-28
2022/03/15 09:09:44;;;;;;;4.60;2.05;;;;;;;-148.56;100.00;61375.16;5047133;28;20039;-33
2022/03/15 09:12:10;;;;;;;5.85;1.92;;;;;;;-148.56;100.00;61375.16;5046883;28;20032;-33
2022/03/15 09:14:36;;;;;;;3.63;1.70;;;;;;;-148.56;100.00;61375.16;5047548;28;20060;-30
2022/03/15 09:17:01;;;;;;;6.15;2.00;;;;;;;-148.56;100.00;61375.16;5048247;28;20028;-30
2022/03/15 09:19:27;;;;;;;5.13;1.70;;;;;;;-148.56;100.00;61375.16;5048721;28;20037;-30
2022/03/15 09:21:52;;;;;;;4.10;2.15;;;;;;;-148.56;100.00;61375.16;5046898;28;20031;-32
2022/03/15 09:24:17;;;;;;;17.40;2.67;;;;;;;-148.56;100.00;61375.16;5043328;28;20454;-30
2022/03/15 09:26:43;;;;;;;14.10;4.38;;;;;;;-148.56;100.00;61375.16;5046022;28;21842;-30
2022/03/15 09:29:09;;;;;;;19.42;3.42;;;;;;;-148.56;100.00;61375.16;5048988;28;20025;-31
2022/03/15 09:31:35;;;;;;;15.95;3.47;;;;;;;-148.56;100.00;61375.16;5055301;28;20161;-28
2022/03/15 09:34:01;;;;;;;18.92;3.50;;;;;;;-148.56;100.00;61375.16;5054375;28;20544;-41
2022/03/15 09:36:26;;;;;;;22.05;3.03;;;;;;;-148.56;100.00;61375.16;5054450;28;20035;-30
2022/03/15 09:38:52;;;;;;;7.93;2.67;;;;;;;-148.56;100.00;61375.16;5048134;28;20073;-27
2022/03/15 09:41:18;;;;;;;7.93;2.53;;;;;;;-148.56;100.00;61375.16;5060620;28;20063;-32
2022/03/15 09:43:47;;;;;;;8.15;2.40;;;;;;;-148.56;100.00;61375.16;5047977;28;20461;-28
2022/03/15 09:46:13;;;;;;;11.18;2.83;;;;;;;-148.56;100.00;61375.16;5048125;28;20032;-28
2022/03/15 09:48:39;;;;;;;10.88;2.63;;;;;;;-148.56;100.00;61375.16;5047476;28;20039;-26
2022/03/15 09:51:05;;;;;;;6.10;2.35;;;;;;;-148.56;100.00;61375.16;5042781;28;20115;-30
2022/03/15 09:53:33;;;;;;;9.18;2.58;;;;;;;-148.56;100.00;61375.16;5051407;28;20078;-26
2022/03/15 09:55:58;;;;;;;9.77;2.88;;;;;;;-148.56;100.00;61375.16;5051214;28;20119;-27
2022/03/15 09:58:24;;;;;;;7.75;2.50;;;;;;;-148.56;100.00;61375.16;5048043;28;20338;-28
2022/03/15 10:00:51;;;;;;;8.02;2.38;;;;;;;-148.56;100.00;61375.16;5046887;28;20151;-27
2022/03/15 10:03:17;;;;;;;8.70;2.35;;;;;;;-148.56;100.00;61375.16;5043531;28;20028;-29
2022/03/15 10:05:44;;;;;;;7.20;2.97;;;;;;;-148.56;100.00;61375.16;5042137;28;20063;-29
2022/03/15 10:08:10;;;;;;;12.05;3.60;;;;;;;-148.56;100.00;61375.16;5042822;28;20034;-28
2022/03/15 10:10:35;;;;;;;14.15;2.88;;;;;;;-148.56;100.00;61375.16;5048309;28;20028;-25
2022/03/15 10:13:02;;;;;;;9.48;2.25;;;;;;;-148.56;100.00;61375.16;5045044;28;20020;-28
2022/03/15 10:15:27;;;;;;;9.70;2.95;;;;;;;-148.56;100.00;61375.16;5050137;28;20027;-26
2022/03/15 10:17:55;;;;;;;10.50;2.90;;;;;;;-148.56;100.00;61375.16;5057562;28;20032;-27
2022/03/15 10:20:28;;;;;;;8.98;3.17;;;;;;;-148.56;100.00;61375.16;5053940;28;20048;-28
2022/03/15 10:22:58;;;;;;;11.48;3.05;;;;;;;-148.56;100.00;61375.16;5054024;28;20043;-28
2022/03/15 10:25:25;;;;;;;9.40;3.20;;;;;;;-148.56;100.00;61375.16;5055904;28;20052;-29
2022/03/15 10:27:57;;;;;;;14.73;2.92;;;;;;;-148.56;100.00;61375.16;5055425;28;20039;-26
2022/03/15 10:30:24;;;;;;;10.68;2.75;;;;;;;-148.56;100.00;61375.16;5056584;28;20024;-28
2022/03/15 10:32:50;;;;;;;12.57;2.92;;;;;;;-148.56;100.00;61375.16;5057087;28;20785;-29
2022/03/15 10:35:20;;;;;;;12.73;2.90;;;;;;;-148.56;100.00;61375.16;5051798;28;20043;-31
2022/03/15 10:37:45;;;;;;;9.35;2.63;;;;;;;-148.56;100.00;61375.16;5056985;28;20592;-29
2022/03/15 10:40:11;;;;;;;6.25;2.50;;;;;;;-148.56;100.00;61375.16;5053628;28;20028;-29
2022/03/15 10:42:41;;;;;;;7.53;2.58;;;;;;;-148.56;100.00;61375.16;5048896;28;21729;-30
2022/03/15 10:45:24;;;;;;;9.38;2.63;;;;;;;-148.56;100.00;61375.16;5047007;28;20057;-29
2022/03/15 10:47:53;;;;;;;9.65;2.38;;;;;;;-148.56;100.00;61375.16;5041587;28;20077;-30
2022/03/15 10:50:19;;;;;;;12.95;2.47;;;;;;;-148.56;100.00;61375.16;5042122;28;20048;-28
2022/03/15 10:52:45;;;;;;;5.32;2.25;;;;;;;-148.56;100.00;61375.16;5042871;28;20033;-28
2022/03/15 10:55:28;;;;;;;8.25;2.70;;;;;;;-148.56;100.00;61375.16;5046179;28;20020;-29
2022/03/15 10:58:02;;;;;;;12.32;2.17;;;;;;;-148.56;100.00;61375.16;5049533;28;20036;-29
2022/03/15 11:00:36;;;;;;;11.85;2.30;;;;;;;-148.56;100.00;61375.16;5054391;28;20098;-27
2022/03/15 11:03:02;;;;;;;8.55;2.50;;;;;;;-148.56;100.00;61375.16;5056577;28;20024;-30
2022/03/15 11:05:32;;;;;;;7.88;2.13;;;;;;;-148.56;100.00;61375.16;5056568;28;20028;-29